sensor_id;sensor_type;location;lat;lon;timestamp;P1;durP1;ratioP1;P2;durP2;ratioP2
69856;SDS011;57147;53.582;10.112;2023-04-01T00:03:47;7.97;;;5.03;;
69856;SDS011;57147;53.582;10.112;2023-04-01T00:08:47;10.02;;;5.85;;
69856;SDS011;57147;53.582;10.112;2023-04-01T00:13:48;10.50;;;6.20;;
69856;SDS011;57147;53.582;10.112;2023-04-01T00:18:52;10.85;;;6.97;;
69856;SDS011;57147;53.582;10.112;2023-04-01T00:23:52;8.50;;;7.10;;
69856;SDS011;57147;53.582;10.112;2023-04-01T00:28:53;9.45;;;5.20;;
69856;SDS011;57147;53.582;10.112;2023-04-01T00:33:56;9.27;;;5.85;;
69856;SDS011;57147;53.582;10.112;2023-04-01T00:38:57;10.95;;;6.95;;
69856;SDS011;57147;53.582;10.112;2023-04-01T00:44:11;8.38;;;5.78;;
69856;SDS011;57147;53.582;10.112;2023-04-01T00:49:19;9.77;;;5.95;;
69856;SDS011;57147;53.582;10.112;2023-04-01T00:54:22;9.52;;;5.57;;
69856;SDS011;57147;53.582;10.112;2023-04-01T00:59:25;9.10;;;6.28;;
69856;SDS011;57147;53.582;10.112;2023-04-01T01:04:31;6.75;;;5.65;;
69856;SDS011;57147;53.582;10.112;2023-04-01T01:09:36;9.70;;;5.20;;
69856;SDS011;57147;53.582;10.112;2023-04-01T01:14:49;9.60;;;6.38;;
69856;SDS011;57147;53.582;10.112;2023-04-01T01:25:48;8.60;;;6.40;;
69856;SDS011;57147;53.582;10.112;2023-04-01T01:31:01;7.63;;;5.47;;
69856;SDS011;57147;53.582;10.112;2023-04-01T01:36:12;7.57;;;3.60;;
69856;SDS011;57147;53.582;10.112;2023-04-01T01:41:15;7.18;;;6.18;;
69856;SDS011;57147;53.582;10.112;2023-04-01T01:46:19;8.82;;;5.85;;
69856;SDS011;57147;53.582;10.112;2023-04-01T01:51:25;7.68;;;5.47;;
69856;SDS011;57147;53.582;10.112;2023-04-01T01:56:27;8.35;;;5.20;;
69856;SDS011;57147;53.582;10.112;2023-04-01T02:01:31;8.23;;;4.80;;
69856;SDS011;57147;53.582;10.112;2023-04-01T02:06:38;8.63;;;3.63;;
69856;SDS011;57147;53.582;10.112;2023-04-01T02:11:45;9.77;;;5.78;;
69856;SDS011;57147;53.582;10.112;2023-04-01T02:16:49;8.95;;;5.43;;
69856;SDS011;57147;53.582;10.112;2023-04-01T02:21:56;11.25;;;6.75;;
69856;SDS011;57147;53.582;10.112;2023-04-01T02:26:59;10.38;;;6.22;;
69856;SDS011;57147;53.582;10.112;2023-04-01T02:32:00;9.55;;;6.07;;
69856;SDS011;57147;53.582;10.112;2023-04-01T02:37:05;8.32;;;6.20;;
69856;SDS011;57147;53.582;10.112;2023-04-01T02:42:05;9.75;;;5.75;;
69856;SDS011;57147;53.582;10.112;2023-04-01T02:47:06;12.48;;;7.40;;
69856;SDS011;57147;53.582;10.112;2023-04-01T02:52:09;8.10;;;6.25;;
69856;SDS011;57147;53.582;10.112;2023-04-01T02:57:10;10.93;;;8.07;;
69856;SDS011;57147;53.582;10.112;2023-04-01T03:02:10;8.48;;;6.50;;
69856;SDS011;57147;53.582;10.112;2023-04-01T03:07:14;10.02;;;6.40;;
69856;SDS011;57147;53.582;10.112;2023-04-01T03:12:14;9.85;;;6.47;;
69856;SDS011;57147;53.582;10.112;2023-04-01T03:17:15;7.57;;;6.60;;
69856;SDS011;57147;53.582;10.112;2023-04-01T03:22:18;8.73;;;6.97;;
69856;SDS011;57147;53.582;10.112;2023-04-01T03:27:19;7.75;;;5.53;;
69856;SDS011;57147;53.582;10.112;2023-04-01T03:32:20;8.88;;;6.57;;
69856;SDS011;57147;53.582;10.112;2023-04-01T03:37:23;12.13;;;7.88;;
69856;SDS011;57147;53.582;10.112;2023-04-01T03:42:24;9.07;;;7.15;;
69856;SDS011;57147;53.582;10.112;2023-04-01T03:47:24;8.93;;;6.97;;
69856;SDS011;57147;53.582;10.112;2023-04-01T03:52:28;9.77;;;6.93;;
69856;SDS011;57147;53.582;10.112;2023-04-01T03:57:30;9.32;;;6.30;;
69856;SDS011;57147;53.582;10.112;2023-04-01T04:02:31;12.30;;;8.00;;
69856;SDS011;57147;53.582;10.112;2023-04-01T04:07:36;8.05;;;5.18;;
69856;SDS011;57147;53.582;10.112;2023-04-01T04:12:38;10.05;;;7.32;;
69856;SDS011;57147;53.582;10.112;2023-04-01T04:17:38;9.50;;;8.40;;
69856;SDS011;57147;53.582;10.112;2023-04-01T04:22:41;12.15;;;8.00;;
69856;SDS011;57147;53.582;10.112;2023-04-01T04:27:42;10.57;;;8.30;;
69856;SDS011;57147;53.582;10.112;2023-04-01T04:32:42;11.60;;;8.18;;
69856;SDS011;57147;53.582;10.112;2023-04-01T04:37:46;10.30;;;7.65;;
69856;SDS011;57147;53.582;10.112;2023-04-01T04:42:46;10.45;;;9.13;;
69856;SDS011;57147;53.582;10.112;2023-04-01T04:47:47;10.45;;;8.52;;
69856;SDS011;57147;53.582;10.112;2023-04-01T04:52:50;10.38;;;8.05;;
69856;SDS011;57147;53.582;10.112;2023-04-01T04:57:51;9.10;;;6.65;;
69856;SDS011;57147;53.582;10.112;2023-04-01T05:02:51;10.00;;;8.13;;
69856;SDS011;57147;53.582;10.112;2023-04-01T05:07:54;10.50;;;7.32;;
69856;SDS011;57147;53.582;10.112;2023-04-01T05:12:55;8.27;;;5.50;;
69856;SDS011;57147;53.582;10.112;2023-04-01T05:17:56;6.82;;;6.25;;
69856;SDS011;57147;53.582;10.112;2023-04-01T05:22:59;3.85;;;3.55;;
69856;SDS011;57147;53.582;10.112;2023-04-01T05:28:00;3.65;;;3.35;;
69856;SDS011;57147;53.582;10.112;2023-04-01T05:33:02;2.28;;;1.20;;
69856;SDS011;57147;53.582;10.112;2023-04-01T05:38:06;2.85;;;2.65;;
69856;SDS011;57147;53.582;10.112;2023-04-01T05:43:07;3.30;;;3.10;;
69856;SDS011;57147;53.582;10.112;2023-04-01T05:48:07;2.28;;;1.88;;
69856;SDS011;57147;53.582;10.112;2023-04-01T05:53:10;2.47;;;2.28;;
69856;SDS011;57147;53.582;10.112;2023-04-01T05:58:11;3.20;;;3.00;;
69856;SDS011;57147;53.582;10.112;2023-04-01T06:03:12;2.90;;;2.70;;
69856;SDS011;57147;53.582;10.112;2023-04-01T06:08:15;3.70;;;3.47;;
69856;SDS011;57147;53.582;10.112;2023-04-01T06:13:19;2.97;;;2.78;;
69856;SDS011;57147;53.582;10.112;2023-04-01T06:18:38;3.35;;;3.17;;
69856;SDS011;57147;53.582;10.112;2023-04-01T06:23:58;2.40;;;2.30;;
69856;SDS011;57147;53.582;10.112;2023-04-01T06:35:00;2.75;;;2.58;;
69856;SDS011;57147;53.582;10.112;2023-04-01T06:40:25;2.03;;;1.92;;
69856;SDS011;57147;53.582;10.112;2023-04-01T06:45:41;3.22;;;3.03;;
69856;SDS011;57147;53.582;10.112;2023-04-01T06:50:45;2.65;;;2.45;;
69856;SDS011;57147;53.582;10.112;2023-04-01T06:55:59;2.53;;;2.33;;
69856;SDS011;57147;53.582;10.112;2023-04-01T07:01:02;2.65;;;2.53;;
69856;SDS011;57147;53.582;10.112;2023-04-01T07:06:06;2.10;;;2.00;;
69856;SDS011;57147;53.582;10.112;2023-04-01T07:11:21;3.83;;;3.63;;
69856;SDS011;57147;53.582;10.112;2023-04-01T07:16:26;2.05;;;1.95;;
69856;SDS011;57147;53.582;10.112;2023-04-01T07:21:30;2.88;;;2.67;;
69856;SDS011;57147;53.582;10.112;2023-04-01T07:26:38;2.40;;;2.22;;
69856;SDS011;57147;53.582;10.112;2023-04-01T07:31:48;1.10;;;1.00;;
69856;SDS011;57147;53.582;10.112;2023-04-01T07:37:02;3.38;;;3.17;;
69856;SDS011;57147;53.582;10.112;2023-04-01T07:42:13;3.08;;;2.60;;
69856;SDS011;57147;53.582;10.112;2023-04-01T07:47:20;2.25;;;2.05;;
69856;SDS011;57147;53.582;10.112;2023-04-01T07:52:34;2.55;;;2.45;;
69856;SDS011;57147;53.582;10.112;2023-04-01T07:57:43;2.47;;;2.30;;
69856;SDS011;57147;53.582;10.112;2023-04-01T08:03:01;3.30;;;3.10;;
69856;SDS011;57147;53.582;10.112;2023-04-01T08:08:15;3.28;;;3.10;;
69856;SDS011;57147;53.582;10.112;2023-04-01T08:13:25;2.33;;;2.22;;
69856;SDS011;57147;53.582;10.112;2023-04-01T08:18:36;3.47;;;3.28;;
69856;SDS011;57147;53.582;10.112;2023-04-01T08:23:43;2.40;;;2.30;;
69856;SDS011;57147;53.582;10.112;2023-04-01T08:28:49;2.65;;;2.45;;
69856;SDS011;57147;53.582;10.112;2023-04-01T08:33:54;1.40;;;1.35;;
69856;SDS011;57147;53.582;10.112;2023-04-01T08:38:57;2.20;;;2.10;;
69856;SDS011;57147;53.582;10.112;2023-04-01T08:44:23;0.55;;;0.50;;
69856;SDS011;57147;53.582;10.112;2023-04-01T08:49:45;2.90;;;2.70;;
69856;SDS011;57147;53.582;10.112;2023-04-01T09:00:38;3.33;;;3.17;;
69856;SDS011;57147;53.582;10.112;2023-04-01T09:11:32;2.47;;;2.38;;
69856;SDS011;57147;53.582;10.112;2023-04-01T09:22:37;2.10;;;2.00;;
69856;SDS011;57147;53.582;10.112;2023-04-01T09:27:43;2.30;;;2.20;;
69856;SDS011;57147;53.582;10.112;2023-04-01T09:32:57;0.98;;;0.98;;
69856;SDS011;57147;53.582;10.112;2023-04-01T09:38:20;2.72;;;2.60;;
69856;SDS011;57147;53.582;10.112;2023-04-01T09:43:26;1.98;;;1.88;;
69856;SDS011;57147;53.582;10.112;2023-04-01T09:48:38;1.92;;;1.83;;
69856;SDS011;57147;53.582;10.112;2023-04-01T09:53:59;2.05;;;1.95;;
69856;SDS011;57147;53.582;10.112;2023-04-01T10:10:26;0.55;;;0.50;;
69856;SDS011;57147;53.582;10.112;2023-04-01T10:15:58;2.95;;;2.85;;
69856;SDS011;57147;53.582;10.112;2023-04-01T10:26:49;1.95;;;1.85;;
69856;SDS011;57147;53.582;10.112;2023-04-01T10:37:50;2.75;;;2.65;;
69856;SDS011;57147;53.582;10.112;2023-04-01T10:43:23;1.92;;;1.83;;
69856;SDS011;57147;53.582;10.112;2023-04-01T11:11:04;1.67;;;1.65;;
69856;SDS011;57147;53.582;10.112;2023-04-01T11:22:08;2.22;;;2.03;;
69856;SDS011;57147;53.582;10.112;2023-04-01T11:27:30;2.17;;;2.08;;
69856;SDS011;57147;53.582;10.112;2023-04-01T11:32:52;3.17;;;2.97;;
69856;SDS011;57147;53.582;10.112;2023-04-01T11:38:00;3.58;;;3.38;;
69856;SDS011;57147;53.582;10.112;2023-04-01T11:43:10;3.28;;;3.08;;
69856;SDS011;57147;53.582;10.112;2023-04-01T11:53:58;4.53;;;4.22;;
69856;SDS011;57147;53.582;10.112;2023-04-01T12:05:04;5.05;;;4.28;;
69856;SDS011;57147;53.582;10.112;2023-04-01T12:10:18;5.82;;;5.25;;
69856;SDS011;57147;53.582;10.112;2023-04-01T12:15:21;4.68;;;4.28;;
69856;SDS011;57147;53.582;10.112;2023-04-01T12:20:33;4.03;;;3.63;;
69856;SDS011;57147;53.582;10.112;2023-04-01T12:25:54;6.13;;;4.65;;
69856;SDS011;57147;53.582;10.112;2023-04-01T12:31:15;4.78;;;4.28;;
69856;SDS011;57147;53.582;10.112;2023-04-01T12:36:35;4.85;;;4.22;;
69856;SDS011;57147;53.582;10.112;2023-04-01T12:41:45;4.38;;;3.97;;
69856;SDS011;57147;53.582;10.112;2023-04-01T12:52:21;4.88;;;4.47;;
69856;SDS011;57147;53.582;10.112;2023-04-01T12:57:37;5.88;;;5.47;;
69856;SDS011;57147;53.582;10.112;2023-04-01T13:03:08;5.40;;;4.90;;
69856;SDS011;57147;53.582;10.112;2023-04-01T13:08:26;5.22;;;4.72;;
69856;SDS011;57147;53.582;10.112;2023-04-01T13:13:41;5.43;;;4.93;;
69856;SDS011;57147;53.582;10.112;2023-04-01T13:19:03;5.15;;;4.75;;
69856;SDS011;57147;53.582;10.112;2023-04-01T13:24:11;5.03;;;4.15;;
69856;SDS011;57147;53.582;10.112;2023-04-01T13:29:28;3.13;;;2.60;;
69856;SDS011;57147;53.582;10.112;2023-04-01T13:34:35;4.95;;;4.45;;
69856;SDS011;57147;53.582;10.112;2023-04-01T13:39:56;2.03;;;1.67;;
69856;SDS011;57147;53.582;10.112;2023-04-01T13:45:09;5.50;;;5.00;;
69856;SDS011;57147;53.582;10.112;2023-04-01T13:55:51;4.43;;;3.95;;
69856;SDS011;57147;53.582;10.112;2023-04-01T14:01:09;4.40;;;4.00;;
69856;SDS011;57147;53.582;10.112;2023-04-01T14:06:19;4.45;;;4.05;;
69856;SDS011;57147;53.582;10.112;2023-04-01T14:11:31;6.30;;;3.97;;
69856;SDS011;57147;53.582;10.112;2023-04-01T14:22:02;6.28;;;4.80;;
69856;SDS011;57147;53.582;10.112;2023-04-01T14:27:19;5.32;;;4.75;;
69856;SDS011;57147;53.582;10.112;2023-04-01T14:32:32;3.92;;;2.35;;
69856;SDS011;57147;53.582;10.112;2023-04-01T14:37:54;5.55;;;4.97;;
69856;SDS011;57147;53.582;10.112;2023-04-01T14:43:08;4.80;;;4.35;;
69856;SDS011;57147;53.582;10.112;2023-04-01T14:48:21;4.55;;;4.15;;
69856;SDS011;57147;53.582;10.112;2023-04-01T14:53:26;6.07;;;5.43;;
69856;SDS011;57147;53.582;10.112;2023-04-01T14:58:42;5.68;;;4.82;;
69856;SDS011;57147;53.582;10.112;2023-04-01T15:03:47;6.50;;;4.30;;
69856;SDS011;57147;53.582;10.112;2023-04-01T15:08:52;4.93;;;2.45;;
69856;SDS011;57147;53.582;10.112;2023-04-01T15:14:08;7.43;;;5.35;;
69856;SDS011;57147;53.582;10.112;2023-04-01T15:19:26;7.32;;;3.58;;
69856;SDS011;57147;53.582;10.112;2023-04-01T15:24:41;8.23;;;5.80;;
69856;SDS011;57147;53.582;10.112;2023-04-01T15:29:53;5.72;;;4.88;;
69856;SDS011;57147;53.582;10.112;2023-04-01T15:35:03;5.75;;;4.68;;
69856;SDS011;57147;53.582;10.112;2023-04-01T15:40:20;5.70;;;5.03;;
69856;SDS011;57147;53.582;10.112;2023-04-01T15:45:34;7.30;;;5.82;;
69856;SDS011;57147;53.582;10.112;2023-04-01T15:50:53;6.22;;;5.18;;
69856;SDS011;57147;53.582;10.112;2023-04-01T15:56:07;7.13;;;6.07;;
69856;SDS011;57147;53.582;10.112;2023-04-01T16:01:34;8.50;;;6.28;;
69856;SDS011;57147;53.582;10.112;2023-04-01T16:06:46;6.90;;;5.40;;
69856;SDS011;57147;53.582;10.112;2023-04-01T16:11:59;7.65;;;5.88;;
69856;SDS011;57147;53.582;10.112;2023-04-01T16:17:27;7.15;;;6.45;;
69856;SDS011;57147;53.582;10.112;2023-04-01T16:22:44;7.53;;;6.13;;
69856;SDS011;57147;53.582;10.112;2023-04-01T16:27:50;6.50;;;5.80;;
69856;SDS011;57147;53.582;10.112;2023-04-01T16:33:00;6.43;;;5.00;;
69856;SDS011;57147;53.582;10.112;2023-04-01T16:38:05;9.15;;;5.72;;
69856;SDS011;57147;53.582;10.112;2023-04-01T16:43:15;9.30;;;6.20;;
69856;SDS011;57147;53.582;10.112;2023-04-01T16:48:24;8.68;;;6.00;;
69856;SDS011;57147;53.582;10.112;2023-04-01T16:53:46;8.63;;;5.60;;
69856;SDS011;57147;53.582;10.112;2023-04-01T16:58:56;7.13;;;6.32;;
69856;SDS011;57147;53.582;10.112;2023-04-01T17:04:07;8.88;;;5.82;;
69856;SDS011;57147;53.582;10.112;2023-04-01T17:09:20;9.32;;;6.18;;
69856;SDS011;57147;53.582;10.112;2023-04-01T17:14:30;7.72;;;6.18;;
69856;SDS011;57147;53.582;10.112;2023-04-01T17:19:53;8.55;;;6.18;;
69856;SDS011;57147;53.582;10.112;2023-04-01T17:25:07;7.00;;;6.30;;
69856;SDS011;57147;53.582;10.112;2023-04-01T17:30:19;7.07;;;5.63;;
69856;SDS011;57147;53.582;10.112;2023-04-01T17:35:28;7.63;;;5.85;;
69856;SDS011;57147;53.582;10.112;2023-04-01T17:40:40;6.53;;;5.85;;
69856;SDS011;57147;53.582;10.112;2023-04-01T17:45:52;7.15;;;4.82;;
69856;SDS011;57147;53.582;10.112;2023-04-01T17:51:02;6.57;;;5.32;;
69856;SDS011;57147;53.582;10.112;2023-04-01T17:56:14;8.40;;;5.78;;
69856;SDS011;57147;53.582;10.112;2023-04-01T18:01:24;10.65;;;8.10;;
69856;SDS011;57147;53.582;10.112;2023-04-01T18:06:35;6.78;;;5.75;;
69856;SDS011;57147;53.582;10.112;2023-04-01T18:11:44;6.60;;;4.53;;
69856;SDS011;57147;53.582;10.112;2023-04-01T18:17:04;6.68;;;6.00;;
69856;SDS011;57147;53.582;10.112;2023-04-01T18:22:19;7.65;;;6.88;;
69856;SDS011;57147;53.582;10.112;2023-04-01T18:27:23;7.40;;;5.53;;
69856;SDS011;57147;53.582;10.112;2023-04-01T18:32:31;7.43;;;6.22;;
69856;SDS011;57147;53.582;10.112;2023-04-01T18:37:39;10.57;;;7.95;;
69856;SDS011;57147;53.582;10.112;2023-04-01T18:42:46;7.05;;;6.32;;
69856;SDS011;57147;53.582;10.112;2023-04-01T18:48:00;7.32;;;5.43;;
69856;SDS011;57147;53.582;10.112;2023-04-01T18:53:21;7.82;;;3.35;;
69856;SDS011;57147;53.582;10.112;2023-04-01T18:58:28;7.03;;;6.28;;
69856;SDS011;57147;53.582;10.112;2023-04-01T19:03:34;7.53;;;6.72;;
69856;SDS011;57147;53.582;10.112;2023-04-01T19:08:43;7.35;;;6.28;;
69856;SDS011;57147;53.582;10.112;2023-04-01T19:13:46;6.00;;;4.97;;
69856;SDS011;57147;53.582;10.112;2023-04-01T19:24:38;7.40;;;5.15;;
69856;SDS011;57147;53.582;10.112;2023-04-01T19:29:56;6.38;;;4.57;;
69856;SDS011;57147;53.582;10.112;2023-04-01T19:35:19;6.57;;;5.97;;
69856;SDS011;57147;53.582;10.112;2023-04-01T19:40:37;7.18;;;6.18;;
69856;SDS011;57147;53.582;10.112;2023-04-01T19:45:48;6.30;;;3.88;;
69856;SDS011;57147;53.582;10.112;2023-04-01T19:50:55;6.82;;;5.05;;
69856;SDS011;57147;53.582;10.112;2023-04-01T19:56:05;6.65;;;5.95;;
69856;SDS011;57147;53.582;10.112;2023-04-01T20:01:13;6.50;;;5.90;;
69856;SDS011;57147;53.582;10.112;2023-04-01T20:06:21;6.05;;;5.45;;
69856;SDS011;57147;53.582;10.112;2023-04-01T20:11:33;6.57;;;5.15;;
69856;SDS011;57147;53.582;10.112;2023-04-01T20:16:49;8.57;;;5.43;;
69856;SDS011;57147;53.582;10.112;2023-04-01T20:21:56;6.22;;;4.63;;
69856;SDS011;57147;53.582;10.112;2023-04-01T20:27:02;6.55;;;4.18;;
69856;SDS011;57147;53.582;10.112;2023-04-01T20:32:11;5.75;;;4.63;;
69856;SDS011;57147;53.582;10.112;2023-04-01T20:37:33;9.38;;;5.97;;
69856;SDS011;57147;53.582;10.112;2023-04-01T20:42:49;9.95;;;6.93;;
69856;SDS011;57147;53.582;10.112;2023-04-01T20:48:15;7.75;;;7.05;;
69856;SDS011;57147;53.582;10.112;2023-04-01T20:53:28;7.25;;;4.35;;
69856;SDS011;57147;53.582;10.112;2023-04-01T20:58:38;5.25;;;3.78;;
69856;SDS011;57147;53.582;10.112;2023-04-01T21:03:52;8.18;;;4.65;;
69856;SDS011;57147;53.582;10.112;2023-04-01T21:09:06;5.63;;;4.35;;
69856;SDS011;57147;53.582;10.112;2023-04-01T21:19:54;6.55;;;3.25;;
69856;SDS011;57147;53.582;10.112;2023-04-01T21:25:09;6.10;;;4.70;;
69856;SDS011;57147;53.582;10.112;2023-04-01T21:30:41;4.82;;;2.17;;
69856;SDS011;57147;53.582;10.112;2023-04-01T21:35:53;4.80;;;3.75;;
69856;SDS011;57147;53.582;10.112;2023-04-01T21:41:04;6.38;;;4.78;;
69856;SDS011;57147;53.582;10.112;2023-04-01T21:46:30;6.75;;;3.58;;
69856;SDS011;57147;53.582;10.112;2023-04-01T21:52:05;7.38;;;4.70;;
69856;SDS011;57147;53.582;10.112;2023-04-01T21:57:26;5.65;;;3.88;;
69856;SDS011;57147;53.582;10.112;2023-04-01T22:02:55;8.23;;;5.43;;
69856;SDS011;57147;53.582;10.112;2023-04-01T22:08:33;6.70;;;4.35;;
69856;SDS011;57147;53.582;10.112;2023-04-01T22:13:44;7.35;;;4.32;;
69856;SDS011;57147;53.582;10.112;2023-04-01T22:18:53;5.88;;;4.78;;
69856;SDS011;57147;53.582;10.112;2023-04-01T22:24:01;5.88;;;4.55;;
69856;SDS011;57147;53.582;10.112;2023-04-01T22:29:07;6.60;;;3.70;;
69856;SDS011;57147;53.582;10.112;2023-04-01T22:34:16;5.40;;;3.45;;
69856;SDS011;57147;53.582;10.112;2023-04-01T22:39:26;5.53;;;4.93;;
69856;SDS011;57147;53.582;10.112;2023-04-01T22:44:36;5.90;;;3.97;;
69856;SDS011;57147;53.582;10.112;2023-04-01T22:49:51;7.57;;;3.70;;
69856;SDS011;57147;53.582;10.112;2023-04-01T22:54:58;3.72;;;2.80;;
69856;SDS011;57147;53.582;10.112;2023-04-01T23:00:04;4.10;;;2.05;;
69856;SDS011;57147;53.582;10.112;2023-04-01T23:05:11;5.72;;;3.80;;
69856;SDS011;57147;53.582;10.112;2023-04-01T23:10:18;7.53;;;3.47;;
69856;SDS011;57147;53.582;10.112;2023-04-01T23:15:23;7.10;;;3.67;;
69856;SDS011;57147;53.582;10.112;2023-04-01T23:20:36;4.22;;;3.35;;
69856;SDS011;57147;53.582;10.112;2023-04-01T23:25:47;6.45;;;3.95;;
69856;SDS011;57147;53.582;10.112;2023-04-01T23:30:55;4.63;;;3.63;;
69856;SDS011;57147;53.582;10.112;2023-04-01T23:35:58;3.88;;;3.17;;
69856;SDS011;57147;53.582;10.112;2023-04-01T23:41:01;4.80;;;3.83;;
69856;SDS011;57147;53.582;10.112;2023-04-01T23:46:04;5.13;;;3.45;;
69856;SDS011;57147;53.582;10.112;2023-04-01T23:51:13;4.72;;;4.03;;
69856;SDS011;57147;53.582;10.112;2023-04-01T23:56:18;5.38;;;1.77;;
